createdAt,value
2016-08-26T00:00:36.991Z,1011.05
2016-08-26T00:01:36.952Z,1011.07
2016-08-26T00:02:36.909Z,1011.01
2016-08-26T00:03:36.861Z,1011.03
2016-08-26T00:04:36.827Z,1011.02
2016-08-26T00:05:36.825Z,1011.03
2016-08-26T00:06:36.743Z,1011
2016-08-26T00:07:36.897Z,1010.99
2016-08-26T00:08:36.663Z,1011.01
2016-08-26T00:09:36.611Z,1011.01
2016-08-26T00:10:36.573Z,1010.96
2016-08-26T00:11:36.531Z,1010.99
2016-08-26T00:12:36.499Z,1010.98
2016-08-26T00:13:36.452Z,1011.02
2016-08-26T00:14:36.409Z,1011
2016-08-26T00:15:36.364Z,1010.99
2016-08-26T00:16:36.323Z,1011.02
2016-08-26T00:17:36.279Z,1010.98
2016-08-26T00:18:36.244Z,1010.97
2016-08-26T00:19:36.207Z,1011.01
2016-08-26T00:20:36.166Z,1010.96
2016-08-26T00:21:36.120Z,1010.98
2016-08-26T00:22:36.076Z,1010.93
2016-08-26T00:23:36.034Z,1010.94
2016-08-26T00:24:35.993Z,1010.96
2016-08-26T00:25:35.955Z,1010.93
2016-08-26T00:26:35.916Z,1010.94
2016-08-26T00:27:35.876Z,1010.95
2016-08-26T00:28:35.833Z,1010.9
2016-08-26T00:29:35.801Z,1010.92
2016-08-26T00:30:35.746Z,1010.94
2016-08-26T00:31:35.705Z,1010.95
2016-08-26T00:32:35.667Z,1010.92
2016-08-26T00:33:35.620Z,1010.93
2016-08-26T00:34:35.576Z,1010.91
2016-08-26T00:35:35.734Z,1010.89
2016-08-26T00:36:35.707Z,1010.91
2016-08-26T00:37:35.658Z,1010.91
2016-08-26T00:38:35.420Z,1010.9
2016-08-26T00:39:35.368Z,1010.89
2016-08-26T00:40:35.546Z,1010.93
2016-08-26T00:41:35.288Z,1010.93
2016-08-26T00:42:35.249Z,1010.91
2016-08-26T00:43:35.210Z,1010.89
2016-08-26T00:44:35.168Z,1010.91
2016-08-26T00:45:35.325Z,1010.9
2016-08-26T00:46:35.287Z,1010.92
2016-08-26T00:47:35.241Z,1010.91
2016-08-26T00:48:34.997Z,1010.91
2016-08-26T00:49:34.960Z,1010.94
2016-08-26T00:50:35.121Z,1010.93
2016-08-26T00:51:34.880Z,1010.92
2016-08-26T00:52:34.837Z,1010.94
2016-08-26T00:53:34.796Z,1010.97
2016-08-26T00:54:34.753Z,1010.91
2016-08-26T00:55:34.712Z,1010.91
2016-08-26T00:56:34.667Z,1010.94
2016-08-26T00:57:34.623Z,1010.91
2016-08-26T00:58:34.583Z,1010.94
2016-08-26T00:59:34.546Z,1010.93
2016-08-26T01:00:34.502Z,1010.94
2016-08-26T01:01:34.456Z,1010.92
2016-08-26T01:02:34.436Z,1010.94
2016-08-26T01:03:34.373Z,1010.94
2016-08-26T01:04:34.335Z,1010.97
2016-08-26T01:05:34.293Z,1010.93
2016-08-26T01:06:34.255Z,1010.94
2016-08-26T01:07:34.227Z,1010.94
2016-08-26T01:08:34.189Z,1010.98
2016-08-26T01:09:34.228Z,1010.97
2016-08-26T01:10:34.083Z,1010.95
2016-08-26T01:11:34.045Z,1010.95
2016-08-26T01:12:34.105Z,1010.97
2016-08-26T01:13:34.054Z,1011.04
2016-08-26T01:14:33.917Z,1011.02
2016-08-26T01:15:33.877Z,1011.01
2016-08-26T01:16:34.194Z,1011.03
2016-08-26T01:17:33.798Z,1011.04
2016-08-26T01:18:33.766Z,1011.05
2016-08-26T01:19:33.713Z,1011.02
2016-08-26T01:20:33.668Z,1011.02
2016-08-26T01:21:33.629Z,1011.04
2016-08-26T01:22:33.590Z,1011
2016-08-26T01:23:33.748Z,1010.99
2016-08-26T01:24:33.500Z,1010.97
2016-08-26T01:25:33.461Z,1010.97
2016-08-26T01:26:33.414Z,1010.99
2016-08-26T01:27:33.396Z,1010.95
2016-08-26T01:28:33.334Z,1010.97
2016-08-26T01:29:33.492Z,1011
2016-08-26T01:30:33.264Z,1010.96
2016-08-26T01:31:33.412Z,1010.97
2016-08-26T01:32:33.168Z,1010.96
2016-08-26T01:33:33.126Z,1010.96
2016-08-26T01:34:33.086Z,1010.96
2016-08-26T01:35:33.245Z,1010.95
2016-08-26T01:36:33.000Z,1010.94
2016-08-26T01:37:32.955Z,1010.92
2016-08-26T01:38:32.920Z,1010.97
2016-08-26T01:39:32.875Z,1010.94
2016-08-26T01:40:32.834Z,1010.92
2016-08-26T01:41:32.790Z,1010.96
2016-08-26T01:42:32.773Z,1010.96
2016-08-26T01:43:32.715Z,1010.95
2016-08-26T01:44:32.865Z,1010.94
2016-08-26T01:45:32.625Z,1010.94
2016-08-26T01:46:32.583Z,1010.94
2016-08-26T01:47:32.539Z,1010.93
2016-08-26T01:48:32.499Z,1010.95
2016-08-26T01:49:32.453Z,1010.94
2016-08-26T01:50:32.413Z,1010.97
2016-08-26T01:51:32.372Z,1010.94
2016-08-26T01:52:32.331Z,1010.94
2016-08-26T01:53:32.285Z,1010.98
2016-08-26T01:54:32.244Z,1010.98
2016-08-26T01:55:32.205Z,1010.98
2016-08-26T01:56:32.163Z,1010.98
2016-08-26T01:57:32.124Z,1010.98
2016-08-26T01:58:32.073Z,1010.97
2016-08-26T01:59:32.043Z,1010.98
2016-08-26T02:00:31.993Z,1010.98
2016-08-26T02:01:31.954Z,1011.01
2016-08-26T02:02:31.915Z,1010.97
2016-08-26T02:03:32.074Z,1011.03
2016-08-26T02:04:31.823Z,1011.04
2016-08-26T02:05:31.784Z,1011.12
2016-08-26T02:06:31.942Z,1011.05
2016-08-26T02:07:31.699Z,1011.06
2016-08-26T02:08:32.268Z,1011.09
2016-08-26T02:09:31.825Z,1011.1
2016-08-26T02:10:31.575Z,1011.08
2016-08-26T02:11:31.529Z,1011.14
2016-08-26T02:12:31.494Z,1011.12
2016-08-26T02:13:31.657Z,1011.09
2016-08-26T02:14:31.609Z,1011.09
2016-08-26T02:15:31.765Z,1011.15
2016-08-26T02:16:31.325Z,1011.14
2016-08-26T02:17:31.278Z,1011.16
2016-08-26T02:18:31.237Z,1011.17
2016-08-26T02:19:31.197Z,1011.14
2016-08-26T02:20:31.152Z,1011.15
2016-08-26T02:21:31.116Z,1011.16
2016-08-26T02:22:31.076Z,1011.13
2016-08-26T02:23:31.228Z,1011.16
2016-08-26T02:24:30.986Z,1011.16
2016-08-26T02:25:30.955Z,1011.18
2016-08-26T02:26:30.902Z,1011.13
2016-08-26T02:27:30.854Z,1011.14
2016-08-26T02:28:30.815Z,1011.13
2016-08-26T02:29:30.778Z,1011.08
2016-08-26T02:30:30.736Z,1011.08
2016-08-26T02:31:30.691Z,1011.07
2016-08-26T02:32:30.647Z,1011.08
2016-08-26T02:33:30.606Z,1011.03
2016-08-26T02:34:30.574Z,1011.05
2016-08-26T02:35:30.519Z,1011.08
2016-08-26T02:36:30.487Z,1011.07
2016-08-26T02:37:30.435Z,1011.1
2016-08-26T02:38:30.595Z,1011.07
2016-08-26T02:39:30.356Z,1011.07
2016-08-26T02:40:30.515Z,1011.07
2016-08-26T02:41:30.268Z,1011.08
2016-08-26T02:42:30.227Z,1011.09
2016-08-26T02:43:30.186Z,1011.08
2016-08-26T02:44:30.141Z,1011.06
2016-08-26T02:45:30.101Z,1011.08
2016-08-26T02:46:30.057Z,1011.05
2016-08-26T02:47:30.015Z,1011.08
2016-08-26T02:48:30.171Z,1011.06
2016-08-26T02:49:29.927Z,1011.07
2016-08-26T02:50:30.086Z,1011.07
2016-08-26T02:51:29.842Z,1011.05
2016-08-26T02:52:29.802Z,1011.06
2016-08-26T02:53:29.759Z,1011.07
2016-08-26T02:54:29.718Z,1011.11
2016-08-26T02:55:29.673Z,1011.13
2016-08-26T02:56:29.630Z,1011.1
2016-08-26T02:57:29.594Z,1011.12
2016-08-26T02:58:29.545Z,1011.13
2016-08-26T02:59:29.511Z,1011.11
2016-08-26T03:00:29.463Z,1011.13
2016-08-26T03:01:29.421Z,1011.14
2016-08-26T03:02:29.384Z,1011.16
2016-08-26T03:03:29.538Z,1011.19
2016-08-26T03:04:29.293Z,1011.16
2016-08-26T03:05:29.250Z,1011.13
2016-08-26T03:06:29.214Z,1011.17
2016-08-26T03:07:29.176Z,1011.15
2016-08-26T03:08:29.129Z,1011.17
2016-08-26T03:09:29.090Z,1011.16
2016-08-26T03:10:29.045Z,1011.14
2016-08-26T03:11:29.001Z,1011.11
2016-08-26T03:12:28.954Z,1011.14
2016-08-26T03:13:28.913Z,1011.14
2016-08-26T03:14:28.894Z,1011.13
2016-08-26T03:15:28.827Z,1011.14
2016-08-26T03:16:28.786Z,1011.12
2016-08-26T03:17:28.742Z,1011.12
2016-08-26T03:18:28.914Z,1011.13
2016-08-26T03:19:28.884Z,1011.09
2016-08-26T03:20:28.815Z,1011.1
2016-08-26T03:21:28.572Z,1011.08
2016-08-26T03:22:28.536Z,1011.07
2016-08-26T03:23:28.487Z,1011.1
2016-08-26T03:24:28.445Z,1011.1
2016-08-26T03:25:28.403Z,1011.09
2016-08-26T03:26:28.357Z,1011.09
2016-08-26T03:27:28.323Z,1011.09
2016-08-26T03:28:28.274Z,1011.12
2016-08-26T03:29:28.234Z,1011.1
2016-08-26T03:30:28.195Z,1011.11
2016-08-26T03:31:28.146Z,1011.12
2016-08-26T03:32:28.107Z,1011.12
2016-08-26T03:33:28.065Z,1011.11
2016-08-26T03:34:28.024Z,1011.1
2016-08-26T03:35:27.979Z,1011.09
2016-08-26T03:36:27.935Z,1011.11
2016-08-26T03:37:27.905Z,1011.1
2016-08-26T03:38:27.859Z,1011.11
2016-08-26T03:39:28.020Z,1011.12
2016-08-26T03:40:27.969Z,1011.14
2016-08-26T03:41:27.728Z,1011.15
2016-08-26T03:42:27.681Z,1011.12
2016-08-26T03:43:27.638Z,1011.12
2016-08-26T03:44:27.598Z,1011.09
2016-08-26T03:45:27.553Z,1011.11
2016-08-26T03:46:27.510Z,1011.12
2016-08-26T03:47:27.670Z,1011.1
2016-08-26T03:48:27.435Z,1011.09
2016-08-26T03:49:27.385Z,1011.11
2016-08-26T03:50:27.342Z,1011.13
2016-08-26T03:51:27.296Z,1011.11
2016-08-26T03:52:27.259Z,1011.1
2016-08-26T03:53:27.213Z,1011.12
2016-08-26T03:54:27.175Z,1011.11
2016-08-26T03:55:27.137Z,1011.11
2016-08-26T03:56:27.083Z,1011.16
2016-08-26T03:57:27.043Z,1011.15
2016-08-26T03:58:27.003Z,1011.2
2016-08-26T03:59:26.956Z,1011.21
2016-08-26T04:00:26.922Z,1011.23
2016-08-26T04:01:26.873Z,1011.25
2016-08-26T04:02:26.834Z,1011.27
2016-08-26T04:03:26.787Z,1011.28
2016-08-26T04:04:26.747Z,1011.3
2016-08-26T04:05:26.711Z,1011.32
2016-08-26T04:06:26.858Z,1011.32
2016-08-26T04:07:26.826Z,1011.32
2016-08-26T04:08:26.573Z,1011.3
2016-08-26T04:09:26.530Z,1011.31
2016-08-26T04:10:26.492Z,1011.31
2016-08-26T04:11:26.445Z,1011.32
2016-08-26T04:12:26.406Z,1011.3
2016-08-26T04:13:26.574Z,1011.31
2016-08-26T04:14:26.320Z,1011.36
2016-08-26T04:15:26.477Z,1011.28
2016-08-26T04:16:26.235Z,1011.27
2016-08-26T04:17:26.205Z,1011.3
2016-08-26T04:18:26.350Z,1011.29
2016-08-26T04:19:26.105Z,1011.34
2016-08-26T04:20:26.074Z,1011.35
2016-08-26T04:21:26.025Z,1011.38
2016-08-26T04:22:27.175Z,1011.36
2016-08-26T04:23:25.933Z,1011.41
2016-08-26T04:24:25.890Z,1011.4
2016-08-26T04:25:25.854Z,1011.35
2016-08-26T04:26:25.808Z,1011.37
2016-08-26T04:27:25.968Z,1011.41
2016-08-26T04:28:25.724Z,1011.4
2016-08-26T04:29:25.681Z,1011.42
2016-08-26T04:30:25.634Z,1011.44
2016-08-26T04:31:25.791Z,1011.45
2016-08-26T04:32:25.552Z,1011.47
2016-08-26T04:33:25.515Z,1011.47
2016-08-26T04:34:25.470Z,1011.48
2016-08-26T04:35:25.424Z,1011.45
2016-08-26T04:36:25.386Z,1011.46
2016-08-26T04:37:25.341Z,1011.44
2016-08-26T04:38:25.296Z,1011.46
2016-08-26T04:39:25.477Z,1011.48
2016-08-26T04:40:25.214Z,1011.48
2016-08-26T04:41:25.177Z,1011.49
2016-08-26T04:42:25.125Z,1011.48
2016-08-26T04:43:25.484Z,1011.5
2016-08-26T04:44:25.045Z,1011.52
2016-08-26T04:45:24.996Z,1011.51
2016-08-26T04:46:24.955Z,1011.56
2016-08-26T04:47:24.914Z,1011.57
2016-08-26T04:48:24.874Z,1011.6
2016-08-26T04:49:24.824Z,1011.59
2016-08-26T04:50:24.786Z,1011.61
2016-08-26T04:51:24.747Z,1011.62
2016-08-26T04:52:24.696Z,1011.6
2016-08-26T04:53:24.658Z,1011.63
2016-08-26T04:54:24.611Z,1011.63
2016-08-26T04:55:24.572Z,1011.6
2016-08-26T04:56:24.544Z,1011.66
2016-08-26T04:57:24.501Z,1011.63
2016-08-26T04:58:24.447Z,1011.64
2016-08-26T04:59:24.407Z,1011.64
2016-08-26T05:00:24.758Z,1011.65
2016-08-26T05:01:24.314Z,1011.66
2016-08-26T05:02:24.286Z,1011.64
2016-08-26T05:03:24.233Z,1011.67
2016-08-26T05:04:24.197Z,1011.69
2016-08-26T05:05:24.160Z,1011.69
2016-08-26T05:06:24.112Z,1011.7
2016-08-26T05:07:24.054Z,1011.73
2016-08-26T05:08:24.015Z,1011.72
2016-08-26T05:09:23.975Z,1011.7
2016-08-26T05:10:23.931Z,1011.75
2016-08-26T05:11:23.885Z,1011.76
2016-08-26T05:12:23.845Z,1011.76
2016-08-26T05:13:23.802Z,1011.78
2016-08-26T05:14:23.754Z,1011.76
2016-08-26T05:15:23.715Z,1011.77
2016-08-26T05:16:23.672Z,1011.77
2016-08-26T05:17:23.630Z,1011.78
2016-08-26T05:18:23.590Z,1011.79
2016-08-26T05:19:23.553Z,1011.78
2016-08-26T05:20:23.505Z,1011.8
2016-08-26T05:21:23.672Z,1011.79
2016-08-26T05:22:23.414Z,1011.84
2016-08-26T05:23:23.378Z,1011.82
2016-08-26T05:24:23.329Z,1011.82
2016-08-26T05:25:23.287Z,1011.83
2016-08-26T05:26:23.252Z,1011.8
2016-08-26T05:27:23.202Z,1011.81
2016-08-26T05:28:23.363Z,1011.85
2016-08-26T05:29:23.121Z,1011.82
2016-08-26T05:30:23.080Z,1011.81
2016-08-26T05:31:23.029Z,1011.82
2016-08-26T05:32:22.995Z,1011.82
2016-08-26T05:33:23.143Z,1011.8
2016-08-26T05:34:22.902Z,1011.8
2016-08-26T05:35:22.861Z,1011.81
2016-08-26T05:36:22.835Z,1011.79
2016-08-26T05:37:22.775Z,1011.8
2016-08-26T05:38:22.733Z,1011.82
2016-08-26T05:39:22.686Z,1011.83
2016-08-26T05:40:22.848Z,1011.84
2016-08-26T05:41:22.619Z,1011.85
2016-08-26T05:42:22.578Z,1011.85
2016-08-26T05:43:22.522Z,1011.9
2016-08-26T05:44:22.481Z,1011.89
2016-08-26T05:45:22.433Z,1011.93
2016-08-26T05:46:22.590Z,1011.92
2016-08-26T05:47:22.356Z,1011.91
2016-08-26T05:48:22.304Z,1011.91
2016-08-26T05:49:22.263Z,1011.92
2016-08-26T05:50:22.231Z,1011.94
2016-08-26T05:51:22.173Z,1011.96
2016-08-26T05:52:22.338Z,1011.89
2016-08-26T05:53:22.090Z,1011.93
2016-08-26T05:54:22.065Z,1011.94
2016-08-26T05:55:22.004Z,1011.92
2016-08-26T05:56:22.171Z,1011.92
2016-08-26T05:57:21.922Z,1011.92
2016-08-26T05:58:21.884Z,1011.95
2016-08-26T05:59:21.834Z,1011.94
2016-08-26T06:00:21.798Z,1011.95
2016-08-26T06:01:21.754Z,1011.95
2016-08-26T06:02:21.717Z,1011.95
2016-08-26T06:03:21.668Z,1011.94
2016-08-26T06:04:21.822Z,1011.92
2016-08-26T06:05:21.578Z,1011.93
2016-08-26T06:06:21.742Z,1011.95
2016-08-26T06:07:21.495Z,1011.93
2016-08-26T06:08:21.454Z,1011.93
2016-08-26T06:09:21.414Z,1011.91
2016-08-26T06:10:21.376Z,1011.89
2016-08-26T06:11:21.323Z,1011.88
2016-08-26T06:12:21.485Z,1011.88
2016-08-26T06:13:21.242Z,1011.9
2016-08-26T06:14:21.202Z,1011.85
2016-08-26T06:15:21.154Z,1011.92
2016-08-26T06:16:21.113Z,1011.92
2016-08-26T06:17:21.274Z,1011.92
2016-08-26T06:18:21.032Z,1011.91
2016-08-26T06:19:20.993Z,1011.89
2016-08-26T06:20:20.944Z,1011.88
2016-08-26T06:21:20.902Z,1011.85
2016-08-26T06:22:20.861Z,1011.84
2016-08-26T06:23:20.814Z,1011.88
2016-08-26T06:24:20.770Z,1011.89
2016-08-26T06:25:20.730Z,1011.89
2016-08-26T06:26:20.888Z,1011.86
2016-08-26T06:27:20.649Z,1011.88
2016-08-26T06:28:20.603Z,1011.93
2016-08-26T06:29:20.559Z,1011.93
2016-08-26T06:30:20.520Z,1011.86
2016-08-26T06:31:20.481Z,1011.9
2016-08-26T06:32:20.433Z,1011.92
2016-08-26T06:33:20.392Z,1011.94
2016-08-26T06:34:20.354Z,1011.87
2016-08-26T06:35:20.304Z,1011.92
2016-08-26T06:36:20.264Z,1011.88
2016-08-26T06:37:20.234Z,1011.9
2016-08-26T06:38:20.184Z,1011.96
2016-08-26T06:39:20.335Z,1011.97
2016-08-26T06:40:20.107Z,1011.97
2016-08-26T06:41:20.051Z,1012.02
2016-08-26T06:42:20.014Z,1012.06
2016-08-26T06:43:19.974Z,1012.09
2016-08-26T06:44:19.932Z,1012.04
2016-08-26T06:45:19.890Z,1012.08
2016-08-26T06:46:19.855Z,1012.08
2016-08-26T06:47:19.801Z,1012.08
2016-08-26T06:48:19.758Z,1012.07
2016-08-26T06:49:19.715Z,1012.08
2016-08-26T06:50:19.879Z,1012.1
2016-08-26T06:51:19.632Z,1012.11
2016-08-26T06:52:19.594Z,1012.11
2016-08-26T06:53:19.556Z,1012.14
2016-08-26T06:54:19.508Z,1012.17
2016-08-26T06:55:19.465Z,1012.16
2016-08-26T06:56:19.421Z,1012.19
2016-08-26T06:57:19.383Z,1012.16
2016-08-26T06:58:19.335Z,1012.18
2016-08-26T06:59:19.293Z,1012.18
2016-08-26T07:00:19.251Z,1012.23
2016-08-26T07:01:19.410Z,1012.19
2016-08-26T07:02:19.375Z,1012.2
2016-08-26T07:03:19.140Z,1012.17
2016-08-26T07:04:19.135Z,1012.2
2016-08-26T07:05:19.045Z,1012.16
2016-08-26T07:06:19.002Z,1012.11
2016-08-26T07:07:18.963Z,1012.13
2016-08-26T07:08:18.915Z,1012.12
2016-08-26T07:09:18.881Z,1012.09
2016-08-26T07:10:18.834Z,1012.11
2016-08-26T07:11:18.791Z,1012.12
2016-08-26T07:12:18.952Z,1012.11
2016-08-26T07:13:18.922Z,1012.1
2016-08-26T07:14:18.754Z,1012.12
2016-08-26T07:15:18.669Z,1012.12
2016-08-26T07:16:18.583Z,1012.14
2016-08-26T07:17:18.749Z,1012.15
2016-08-26T07:18:18.512Z,1012.15
2016-08-26T07:19:18.459Z,1012.14
2016-08-26T07:20:18.419Z,1012.11
2016-08-26T07:21:18.379Z,1012.15
2016-08-26T07:22:18.941Z,1012.16
2016-08-26T07:23:18.310Z,1012.13
2016-08-26T07:24:18.259Z,1012.15
2016-08-26T07:25:18.209Z,1012.1
2016-08-26T07:26:18.196Z,1012.07
2016-08-26T07:27:18.135Z,1012.09
2016-08-26T07:28:18.102Z,1012.06
2016-08-26T07:29:18.058Z,1012.09
2016-08-26T07:30:18.019Z,1012.09
2016-08-26T07:31:17.973Z,1012.13
2016-08-26T07:32:17.960Z,1012.14
2016-08-26T07:33:17.910Z,1012.18
2016-08-26T07:34:17.858Z,1012.2
2016-08-26T07:35:17.800Z,1012.19
2016-08-26T07:36:17.762Z,1012.21
2016-08-26T07:37:17.715Z,1012.25
2016-08-26T07:38:17.697Z,1012.29
2016-08-26T07:39:17.640Z,1012.27
2016-08-26T07:40:17.593Z,1012.26
2016-08-26T07:41:17.561Z,1012.28
2016-08-26T07:42:17.529Z,1012.28
2016-08-26T07:43:17.467Z,1012.32
2016-08-26T07:44:17.433Z,1012.33
2016-08-26T07:45:17.388Z,1012.33
2016-08-26T07:46:17.347Z,1012.28
2016-08-26T07:47:17.311Z,1012.33
2016-08-26T07:48:17.272Z,1012.36
2016-08-26T07:49:17.221Z,1012.35
2016-08-26T07:50:17.180Z,1012.33
2016-08-26T07:51:17.144Z,1012.32
2016-08-26T07:52:17.102Z,1012.32
2016-08-26T07:53:17.060Z,1012.32
2016-08-26T07:54:17.017Z,1012.37
2016-08-26T07:55:16.994Z,1012.38
2016-08-26T07:56:17.146Z,1012.37
2016-08-26T07:57:16.899Z,1012.36
2016-08-26T07:58:16.850Z,1012.35
2016-08-26T07:59:16.809Z,1012.36
2016-08-26T08:00:16.767Z,1012.35
2016-08-26T08:01:16.736Z,1012.36
2016-08-26T08:02:16.690Z,1012.34
2016-08-26T08:03:16.668Z,1012.32
2016-08-26T08:04:16.606Z,1012.33
2016-08-26T08:05:16.571Z,1012.33
2016-08-26T08:06:16.530Z,1012.33
2016-08-26T08:07:16.481Z,1012.34
2016-08-26T08:08:16.607Z,1012.37
2016-08-26T08:09:16.610Z,1012.37
2016-08-26T08:10:16.370Z,1012.4
2016-08-26T08:11:16.334Z,1012.41
2016-08-26T08:12:16.279Z,1012.4
2016-08-26T08:13:16.234Z,1012.37
2016-08-26T08:14:16.198Z,1012.4
2016-08-26T08:15:16.374Z,1012.37
2016-08-26T08:16:16.120Z,1012.39
2016-08-26T08:17:16.093Z,1012.41
2016-08-26T08:18:16.036Z,1012.4
2016-08-26T08:19:16.018Z,1012.41
2016-08-26T08:20:16.029Z,1012.44
2016-08-26T08:21:15.922Z,1012.4
2016-08-26T08:22:15.910Z,1012.43
2016-08-26T08:23:15.850Z,1012.41
2016-08-26T08:24:15.796Z,1012.43
2016-08-26T08:25:15.763Z,1012.44
2016-08-26T08:26:15.720Z,1012.42
2016-08-26T08:27:15.685Z,1012.44
2016-08-26T08:28:15.634Z,1012.45
2016-08-26T08:29:15.594Z,1012.46
2016-08-26T08:30:15.557Z,1012.47
2016-08-26T08:31:15.519Z,1012.42
2016-08-26T08:32:15.475Z,1012.45
2016-08-26T08:33:15.446Z,1012.48
2016-08-26T08:34:15.391Z,1012.48
2016-08-26T08:35:15.354Z,1012.48
2016-08-26T08:36:15.309Z,1012.5
2016-08-26T08:37:15.274Z,1012.47
2016-08-26T08:38:15.234Z,1012.46
2016-08-26T08:39:15.207Z,1012.47
2016-08-26T08:40:15.156Z,1012.48
2016-08-26T08:41:15.115Z,1012.5
2016-08-26T08:42:15.070Z,1012.49
2016-08-26T08:43:15.057Z,1012.52
2016-08-26T08:44:14.992Z,1012.51
2016-08-26T08:45:14.961Z,1012.53
2016-08-26T08:46:14.920Z,1012.57
2016-08-26T08:47:14.868Z,1012.51
2016-08-26T08:48:14.846Z,1012.53
2016-08-26T08:49:14.872Z,1012.54
2016-08-26T08:50:14.777Z,1012.51
2016-08-26T08:51:14.770Z,1012.5
2016-08-26T08:52:14.681Z,1012.52
2016-08-26T08:53:14.632Z,1012.54
2016-08-26T08:54:14.592Z,1012.52
2016-08-26T08:55:14.557Z,1012.53
2016-08-26T08:56:14.526Z,1012.54
2016-08-26T08:57:14.479Z,1012.58
2016-08-26T08:58:14.434Z,1012.58
2016-08-26T08:59:14.400Z,1012.56
2016-08-26T09:00:14.382Z,1012.56
2016-08-26T09:01:14.318Z,1012.57
2016-08-26T09:02:14.280Z,1012.58
2016-08-26T09:03:14.238Z,1012.61
2016-08-26T09:04:14.205Z,1012.65
2016-08-26T09:05:14.155Z,1012.69
2016-08-26T09:06:14.312Z,1012.68
2016-08-26T09:07:14.099Z,1012.71
2016-08-26T09:08:14.247Z,1012.66
2016-08-26T09:09:14.000Z,1012.66
2016-08-26T09:10:13.955Z,1012.63
2016-08-26T09:11:13.921Z,1012.68
2016-08-26T09:12:13.890Z,1012.66
2016-08-26T09:13:13.838Z,1012.7
2016-08-26T09:14:13.801Z,1012.65
2016-08-26T09:15:13.774Z,1012.66
2016-08-26T09:16:13.721Z,1012.66
2016-08-26T09:17:13.684Z,1012.63
2016-08-26T09:18:14.060Z,1012.63
2016-08-26T09:19:13.604Z,1012.65
2016-08-26T09:20:13.566Z,1012.62
2016-08-26T09:21:13.578Z,1012.65
2016-08-26T09:22:13.497Z,1012.65
2016-08-26T09:23:13.453Z,1012.58
2016-08-26T09:24:13.406Z,1012.61
2016-08-26T09:25:13.371Z,1012.59
2016-08-26T09:26:13.333Z,1012.54
2016-08-26T09:27:13.291Z,1012.55
2016-08-26T09:28:13.292Z,1012.53
2016-08-26T09:29:13.228Z,1012.55
2016-08-26T09:30:13.168Z,1012.57
2016-08-26T09:31:13.136Z,1012.51
2016-08-26T09:32:13.098Z,1012.52
2016-08-26T09:33:13.056Z,1012.61
2016-08-26T09:34:13.021Z,1012.6
2016-08-26T09:35:12.978Z,1012.56
2016-08-26T09:36:12.941Z,1012.6
2016-08-26T09:37:12.903Z,1012.61
2016-08-26T09:38:12.862Z,1012.6
2016-08-26T09:39:13.011Z,1012.59
2016-08-26T09:40:12.780Z,1012.6
2016-08-26T09:41:12.764Z,1012.62
2016-08-26T09:42:12.710Z,1012.67
2016-08-26T09:43:12.657Z,1012.68
2016-08-26T09:44:12.616Z,1012.71
2016-08-26T09:45:12.580Z,1012.71
2016-08-26T09:46:12.537Z,1012.75
2016-08-26T09:47:12.500Z,1012.75
2016-08-26T09:48:12.464Z,1012.79
2016-08-26T09:49:12.427Z,1012.84
2016-08-26T09:50:12.597Z,1012.84
2016-08-26T09:51:12.346Z,1012.86
2016-08-26T09:52:12.313Z,1012.82
2016-08-26T09:53:12.331Z,1012.83
2016-08-26T09:54:12.234Z,1012.82
2016-08-26T09:55:12.219Z,1012.83
2016-08-26T09:56:12.151Z,1012.77
2016-08-26T09:57:12.144Z,1012.79
2016-08-26T09:58:12.086Z,1012.77
2016-08-26T09:59:12.033Z,1012.75
2016-08-26T10:00:12.196Z,1012.74
2016-08-26T10:01:11.962Z,1012.73
2016-08-26T10:02:11.968Z,1012.71
2016-08-26T10:03:11.885Z,1012.7
2016-08-26T10:04:11.847Z,1012.7
2016-08-26T10:05:11.802Z,1012.71
2016-08-26T10:06:11.756Z,1012.7
2016-08-26T10:07:11.721Z,1012.69
2016-08-26T10:08:11.685Z,1012.69
2016-08-26T10:09:12.050Z,1012.66
2016-08-26T10:10:11.603Z,1012.74
2016-08-26T10:11:11.580Z,1012.68
2016-08-26T10:12:11.522Z,1012.7
2016-08-26T10:13:11.488Z,1012.72
2016-08-26T10:14:11.453Z,1012.72
2016-08-26T10:15:11.414Z,1012.7
2016-08-26T10:16:11.372Z,1012.72
2016-08-26T10:17:11.325Z,1012.68
2016-08-26T10:18:11.290Z,1012.67
2016-08-26T10:19:11.257Z,1012.68
2016-08-26T10:20:11.208Z,1012.64
2016-08-26T10:21:11.182Z,1012.68
2016-08-26T10:22:11.154Z,1012.65
2016-08-26T10:23:11.091Z,1012.66
2016-08-26T10:24:11.054Z,1012.7
2016-08-26T10:25:11.021Z,1012.7
2016-08-26T10:26:10.984Z,1012.73
2016-08-26T10:27:10.944Z,1012.7
2016-08-26T10:28:11.096Z,1012.69
2016-08-26T10:29:11.071Z,1012.68
2016-08-26T10:30:10.830Z,1012.66
2016-08-26T10:31:10.808Z,1012.69
2016-08-26T10:32:10.752Z,1012.66
2016-08-26T10:33:10.914Z,1012.66
2016-08-26T10:34:10.677Z,1012.65
2016-08-26T10:35:10.651Z,1012.71
2016-08-26T10:36:10.595Z,1012.68
2016-08-26T10:37:10.571Z,1012.65
2016-08-26T10:38:10.519Z,1012.66
2016-08-26T10:39:10.483Z,1012.63
2016-08-26T10:40:10.457Z,1012.68
2016-08-26T10:41:10.420Z,1012.68
2016-08-26T10:42:10.367Z,1012.7
2016-08-26T10:43:10.326Z,1012.72
2016-08-26T10:44:10.281Z,1012.71
2016-08-26T10:45:10.485Z,1012.69
2016-08-26T10:46:10.214Z,1012.7
2016-08-26T10:47:10.172Z,1012.68
2016-08-26T10:48:10.141Z,1012.71
2016-08-26T10:49:10.103Z,1012.66
2016-08-26T10:50:10.055Z,1012.65
2016-08-26T10:51:10.020Z,1012.66
2016-08-26T10:52:09.982Z,1012.65
2016-08-26T10:53:09.934Z,1012.63
2016-08-26T10:54:09.905Z,1012.65
2016-08-26T10:55:09.860Z,1012.63
2016-08-26T10:56:09.816Z,1012.63
2016-08-26T10:57:09.788Z,1012.65
2016-08-26T10:58:09.760Z,1012.65
2016-08-26T10:59:09.711Z,1012.62
2016-08-26T11:00:09.668Z,1012.61
2016-08-26T11:01:09.630Z,1012.63
2016-08-26T11:02:09.591Z,1012.61
2016-08-26T11:03:09.549Z,1012.64
2016-08-26T11:04:09.721Z,1012.65
2016-08-26T11:05:09.487Z,1012.68
2016-08-26T11:06:09.454Z,1012.68
2016-08-26T11:07:09.440Z,1012.71
2016-08-26T11:08:09.673Z,1012.68
2016-08-26T11:09:09.320Z,1012.69
2016-08-26T11:10:09.284Z,1012.71
2016-08-26T11:11:09.246Z,1012.73
2016-08-26T11:12:09.205Z,1012.66
2016-08-26T11:13:09.167Z,1012.71
2016-08-26T11:14:09.129Z,1012.72
2016-08-26T11:15:09.093Z,1012.7
2016-08-26T11:16:09.047Z,1012.73
2016-08-26T11:17:09.021Z,1012.71
2016-08-26T11:18:08.979Z,1012.72
2016-08-26T11:19:08.931Z,1012.75
2016-08-26T11:20:08.903Z,1012.72
2016-08-26T11:21:08.861Z,1012.7
2016-08-26T11:22:08.811Z,1012.74
2016-08-26T11:23:08.786Z,1012.75
2016-08-26T11:24:08.745Z,1012.76
2016-08-26T11:25:08.707Z,1012.79
2016-08-26T11:26:08.661Z,1012.76
2016-08-26T11:27:08.638Z,1012.8
2016-08-26T11:28:08.785Z,1012.75
2016-08-26T11:29:08.557Z,1012.74
2016-08-26T11:30:08.709Z,1012.74
2016-08-26T11:31:08.473Z,1012.79
2016-08-26T11:32:08.437Z,1012.76
2016-08-26T11:33:08.403Z,1012.76
2016-08-26T11:34:08.411Z,1012.8
2016-08-26T11:35:08.318Z,1012.78
2016-08-26T11:36:08.287Z,1012.78
2016-08-26T11:37:08.288Z,1012.79
2016-08-26T11:38:08.207Z,1012.81
2016-08-26T11:39:08.164Z,1012.81
2016-08-26T11:40:08.150Z,1012.78
2016-08-26T11:41:08.096Z,1012.79
2016-08-26T11:42:08.056Z,1012.78
2016-08-26T11:43:08.022Z,1012.79
2016-08-26T11:44:07.974Z,1012.75
2016-08-26T11:45:08.138Z,1012.74
2016-08-26T11:46:07.904Z,1012.77
2016-08-26T11:47:07.869Z,1012.73
2016-08-26T11:48:07.847Z,1012.73
2016-08-26T11:49:07.789Z,1012.76
2016-08-26T11:50:07.745Z,1012.74
2016-08-26T11:51:07.718Z,1012.71
2016-08-26T11:52:07.678Z,1012.74
2016-08-26T11:53:07.647Z,1012.73
2016-08-26T11:54:07.592Z,1012.71
2016-08-26T11:55:07.559Z,1012.75
2016-08-26T11:56:07.517Z,1012.77
2016-08-26T11:57:07.482Z,1012.75
2016-08-26T11:58:07.442Z,1012.76
2016-08-26T11:59:07.417Z,1012.8
2016-08-26T12:00:07.370Z,1012.76
2016-08-26T12:01:07.332Z,1012.84
2016-08-26T12:02:07.293Z,1012.8
2016-08-26T12:03:07.263Z,1012.8
2016-08-26T12:04:07.208Z,1012.78
2016-08-26T12:05:07.181Z,1012.77
2016-08-26T12:06:07.337Z,1012.79
2016-08-26T12:07:07.304Z,1012.8
2016-08-26T12:08:07.083Z,1012.8